Friday Harbor, WA (98250)

9:47 PM PST on February 20, 2017 (GMT -0800)
FOX HALL | | Change Station

Elev 85 ft 48.54 °N, 123.03 °W | Updated 22 seconds ago

Mostly Cloudy
Mostly Cloudy
37.5 °F
Feels Like 38 °F
N
0.0
Wind Variable Wind from NW

Today
High -- | Low -- °F
--% Chance of Precip.
Yesterday
High -- | Low -- °F
Precip. -- in
Pressure 29.73 in
Visibility 10.0 miles
Clouds Few 900 ft
Mostly Cloudy 2200 ft
Mostly Cloudy 3600 ft
Windchill 38 °F
Dew Point 37 °F
Humidity 98%
Rainfall 0.00 in
Snow Depth Not available.
7:09 AM 5:42 PM
Waning Crescent, 28% visible
SPECI KFHR 210539Z AUTO 00000KT 10SM FEW009 BKN022 BKN036 04/03 A2973 RMK AO2 T00440033
Pressure 29.73 in
Visibility 10.0 miles
Clouds Few 900 ft
Mostly Cloudy 2200 ft
Mostly Cloudy 3600 ft
Windchill 38 °F
Dew Point 37 °F
Humidity 98%
Rainfall 0.00 in
Snow Depth Not available.
7:09 AM 5:42 PM
Waning Crescent, 28% visible
SPECI KFHR 210539Z AUTO 00000KT 10SM FEW009 BKN022 BKN036 04/03 A2973 RMK AO2 T00440033

Get Your Daily Forecast Email!

Thanks for signing up!

Be on the lookout for a verification email in your inbox.

You'll start receiving the daily forecast at 8 AM.

×

10-Day Weather Forecast

Almanac

Astronomy

Feb. 20, 2017 Rise Set
Actual Time
Civil Twilight
Nautical Twilight
Astronomical Twilight
Moon
Length of Visible Light
Length of Day
Tomorrow will be .
, % of the Moon is Illuminated

Today's Extremes

State Highs State Lows

Community

WunderPhotos

Upload Photos

1,962,540 photos uploaded!

WunderBlog® & News

Nearby

Air Quality

  Air Quality AQ Index Pollutant
Not available.

Snow Depth

Station Depth Elevation

Earthquake Activity

City Distance Mag. Time & Date
Minimum magnitude displayed is 2.5.

Coastal Water Temperatures

Place Temperature

Stations

Nearby Weather Stations

Station Location Temp. Windchill Dew Point Humidity Wind Precip. Elev Updated Type
                   

Watches & Warnings

There are currently no watches in effect.